createdAt,value
2023-04-28T00:01:01.952Z,8.23
2023-04-28T00:03:30.190Z,7.43
2023-04-28T00:05:58.446Z,6.90
2023-04-28T00:08:28.033Z,6.97
2023-04-28T00:10:56.350Z,6.60
2023-04-28T00:13:24.577Z,6.70
2023-04-28T00:15:53.527Z,5.13
2023-04-28T00:18:21.933Z,5.77
2023-04-28T00:20:50.263Z,5.60
2023-04-28T00:23:18.449Z,5.17
2023-04-28T00:25:52.219Z,4.80
2023-04-28T00:28:32.941Z,4.13
2023-04-28T00:31:02.573Z,4.47
2023-04-28T00:33:30.803Z,3.97
2023-04-28T00:36:02.060Z,3.80
2023-04-28T00:38:30.343Z,3.53
2023-04-28T00:40:59.839Z,3.83
2023-04-28T00:43:28.042Z,3.20
2023-04-28T00:45:56.312Z,3.70
2023-04-28T00:48:24.770Z,3.33
2023-04-28T00:50:53.155Z,3.90
2023-04-28T00:53:21.900Z,3.40
2023-04-28T00:55:50.854Z,3.90
2023-04-28T00:58:21.045Z,3.80
2023-04-28T01:00:49.266Z,3.60
2023-04-28T01:03:17.684Z,4.47
2023-04-28T01:05:46.037Z,4.03
2023-04-28T01:08:14.174Z,3.70
2023-04-28T01:10:46.044Z,3.70
2023-04-28T01:13:14.198Z,4.13
2023-04-28T01:15:43.874Z,4.03
2023-04-28T01:18:12.079Z,3.43
2023-04-28T01:20:40.313Z,3.97
2023-04-28T01:23:13.137Z,4.13
2023-04-28T01:25:42.694Z,3.43
2023-04-28T01:28:11.152Z,3.90
2023-04-28T01:30:39.669Z,4.23
2023-04-28T01:33:07.879Z,3.87
2023-04-28T01:35:36.265Z,4.10
2023-04-28T01:38:04.426Z,3.87
2023-04-28T01:40:33.425Z,3.93
2023-04-28T01:43:02.902Z,4.10
2023-04-28T01:45:31.048Z,3.77
2023-04-28T01:47:59.210Z,4.20
2023-04-28T01:50:27.397Z,3.70
2023-04-28T01:52:55.535Z,3.97
2023-04-28T01:55:23.696Z,3.80
2023-04-28T01:57:51.850Z,4.40
2023-04-28T02:00:21.805Z,4.53
2023-04-28T02:02:50.056Z,5.40
2023-04-28T02:05:18.322Z,4.67
2023-04-28T02:07:46.503Z,5.70
2023-04-28T02:10:14.894Z,5.30
2023-04-28T02:12:43.512Z,5.47
2023-04-28T02:15:12.022Z,5.53
2023-04-28T02:17:41.562Z,5.77
2023-04-28T02:20:10.142Z,5.47
2023-04-28T02:22:38.324Z,5.53
2023-04-28T02:25:07.172Z,5.73
2023-04-28T02:27:37.522Z,5.00
2023-04-28T02:30:06.034Z,5.23
2023-04-28T02:32:34.319Z,5.00
2023-04-28T02:35:04.195Z,5.20
2023-04-28T02:37:32.368Z,5.17
2023-04-28T02:40:00.552Z,5.63
2023-04-28T02:42:28.704Z,5.17
2023-04-28T02:44:56.885Z,4.93
2023-04-28T02:47:25.048Z,5.03
2023-04-28T02:49:53.193Z,5.40
2023-04-28T02:52:22.686Z,4.87
2023-04-28T02:54:54.345Z,5.47
2023-04-28T02:57:22.486Z,4.93
2023-04-28T02:59:50.654Z,4.90
2023-04-28T03:02:20.625Z,5.13
2023-04-28T03:04:48.895Z,5.80
2023-04-28T03:07:17.239Z,6.17
2023-04-28T03:09:47.174Z,5.53
2023-04-28T03:12:15.416Z,5.57
2023-04-28T03:14:43.559Z,5.60
2023-04-28T03:17:14.203Z,5.70
2023-04-28T03:19:42.361Z,6.27
2023-04-28T03:22:10.540Z,5.73
2023-04-28T03:24:38.701Z,5.60
2023-04-28T03:27:08.204Z,4.83
2023-04-28T03:29:36.372Z,4.43
2023-04-28T03:32:04.564Z,4.10
2023-04-28T03:34:32.750Z,4.60
2023-04-28T03:37:01.002Z,4.13
2023-04-28T03:39:29.150Z,3.87
2023-04-28T03:41:57.292Z,4.03
2023-04-28T03:44:26.783Z,4.20
2023-04-28T03:46:54.974Z,4.00
2023-04-28T03:49:23.122Z,3.80
2023-04-28T03:51:51.983Z,4.67
2023-04-28T03:54:20.149Z,4.20
2023-04-28T03:56:48.373Z,4.10
2023-04-28T03:59:16.722Z,4.20
2023-04-28T04:01:46.246Z,4.13
2023-04-28T04:04:14.725Z,4.60
2023-04-28T04:06:43.163Z,4.60
2023-04-28T04:09:11.629Z,3.90
2023-04-28T04:11:39.903Z,4.73
2023-04-28T04:14:08.035Z,4.67
2023-04-28T04:16:37.293Z,5.37
2023-04-28T04:19:06.821Z,4.53
2023-04-28T04:21:35.009Z,4.73
2023-04-28T04:24:03.178Z,5.07
2023-04-28T04:26:31.360Z,4.63
2023-04-28T04:28:59.511Z,4.13
2023-04-28T04:31:27.841Z,4.40
2023-04-28T04:33:56.245Z,4.77
2023-04-28T04:36:25.790Z,5.10
2023-04-28T04:38:54.692Z,5.07
2023-04-28T04:41:23.087Z,4.43
2023-04-28T04:43:51.270Z,5.00
2023-04-28T04:46:19.479Z,5.67
2023-04-28T04:48:47.734Z,4.97
2023-04-28T04:51:15.883Z,5.57
2023-04-28T04:53:45.390Z,5.23
2023-04-28T04:56:13.559Z,4.50
2023-04-28T04:58:41.762Z,4.93
2023-04-28T05:01:10.220Z,5.13
2023-04-28T05:03:38.530Z,5.37
2023-04-28T05:06:06.843Z,5.37
2023-04-28T05:08:34.996Z,5.00
2023-04-28T05:11:04.782Z,5.33
2023-04-28T05:13:32.982Z,5.00
2023-04-28T05:16:01.171Z,5.20
2023-04-28T05:18:29.468Z,5.23
2023-04-28T05:20:57.648Z,6.00
2023-04-28T05:23:25.901Z,5.60
2023-04-28T05:25:54.057Z,6.10
2023-04-28T05:28:23.608Z,6.03
2023-04-28T05:30:51.811Z,5.17
2023-04-28T05:33:20.061Z,5.33
2023-04-28T05:35:48.229Z,5.53
2023-04-28T05:38:16.439Z,5.87
2023-04-28T05:40:44.608Z,5.53
2023-04-28T05:43:12.799Z,5.80
2023-04-28T05:45:42.428Z,5.57
2023-04-28T05:48:10.805Z,5.40
2023-04-28T05:50:39.211Z,5.30
2023-04-28T05:53:07.501Z,5.40
2023-04-28T05:55:36.530Z,5.83
2023-04-28T05:58:04.734Z,5.87
2023-04-28T06:00:34.168Z,5.23
2023-04-28T06:03:03.782Z,5.93
2023-04-28T06:05:32.197Z,5.93
2023-04-28T06:08:00.548Z,5.83
2023-04-28T06:10:28.868Z,5.30
2023-04-28T06:12:57.066Z,5.93
2023-04-28T06:15:25.205Z,5.60
2023-04-28T06:17:53.742Z,5.37
2023-04-28T06:20:23.382Z,5.83
2023-04-28T06:22:51.564Z,5.17
2023-04-28T06:25:19.775Z,5.70
2023-04-28T06:27:48.000Z,5.77
2023-04-28T06:30:20.226Z,5.10
2023-04-28T06:32:48.434Z,4.70
2023-04-28T06:35:18.846Z,4.20
2023-04-28T06:37:48.407Z,3.97
2023-04-28T06:40:16.973Z,3.83
2023-04-28T06:42:45.144Z,3.63
2023-04-28T06:45:13.620Z,3.20
2023-04-28T06:47:41.862Z,3.33
2023-04-28T06:50:10.812Z,3.47
2023-04-28T06:52:40.020Z,3.30
2023-04-28T06:55:10.459Z,2.93
2023-04-28T06:57:38.896Z,3.43
2023-04-28T07:00:08.034Z,3.07
2023-04-28T07:02:36.937Z,3.30
2023-04-28T07:05:05.902Z,3.47
2023-04-28T07:07:34.190Z,3.43
2023-04-28T07:10:02.661Z,4.03
2023-04-28T07:12:32.193Z,3.87
2023-04-28T07:15:00.374Z,3.23
2023-04-28T07:17:28.598Z,3.47
2023-04-28T07:19:56.779Z,3.43
2023-04-28T07:22:24.933Z,3.53
2023-04-28T07:24:53.113Z,3.40
2023-04-28T07:27:21.414Z,3.40
2023-04-28T07:29:50.940Z,3.40
2023-04-28T07:32:19.350Z,3.00
2023-04-28T07:34:47.685Z,3.90
2023-04-28T07:37:15.878Z,3.00
2023-04-28T07:39:44.028Z,2.60
2023-04-28T07:42:12.580Z,2.70
2023-04-28T07:44:40.747Z,2.90
2023-04-28T07:47:10.593Z,2.60
2023-04-28T07:49:38.747Z,2.60
2023-04-28T07:52:07.135Z,2.63
2023-04-28T07:54:37.101Z,2.70
2023-04-28T07:57:06.222Z,2.27
2023-04-28T07:59:35.120Z,2.20
2023-04-28T08:02:03.427Z,2.70
2023-04-28T08:04:35.089Z,2.13
2023-04-28T08:07:03.597Z,2.20
2023-04-28T08:09:31.772Z,1.70
2023-04-28T08:12:00.756Z,1.47
2023-04-28T08:14:29.387Z,1.50
2023-04-28T08:16:57.561Z,1.20
2023-04-28T08:19:25.760Z,1.00
2023-04-28T08:21:55.390Z,1.10
2023-04-28T08:24:23.552Z,1.23
2023-04-28T08:26:51.722Z,1.30
2023-04-28T08:29:19.886Z,1.40
2023-04-28T08:31:48.103Z,1.60
2023-04-28T08:34:16.937Z,1.53
2023-04-28T08:36:45.266Z,1.60
2023-04-28T08:39:14.783Z,1.63
2023-04-28T08:41:43.151Z,1.93
2023-04-28T08:44:12.063Z,1.93
2023-04-28T08:46:42.063Z,1.90
2023-04-28T08:49:14.395Z,1.70
2023-04-28T08:51:47.453Z,2.00
2023-04-28T08:54:29.545Z,1.83
2023-04-28T08:56:58.634Z,1.90
2023-04-28T08:59:26.888Z,1.97
2023-04-28T09:01:55.164Z,1.90
2023-04-28T09:04:23.813Z,2.10
2023-04-28T09:06:52.376Z,2.30
2023-04-28T09:09:22.811Z,2.33
2023-04-28T09:11:55.463Z,2.47
2023-04-28T09:14:23.943Z,2.60
2023-04-28T09:16:52.783Z,2.70
2023-04-28T09:19:21.154Z,3.00
2023-04-28T09:21:54.324Z,2.53
2023-04-28T09:24:33.437Z,3.10
2023-04-28T09:27:02.304Z,2.60
2023-04-28T09:29:30.972Z,2.67
2023-04-28T09:32:14.254Z,2.67
2023-04-28T09:34:46.454Z,2.60
2023-04-28T09:37:17.949Z,2.50
2023-04-28T09:39:49.382Z,2.40
2023-04-28T09:42:34.051Z,2.90
2023-04-28T09:45:03.238Z,3.00
2023-04-28T09:47:32.731Z,3.00
2023-04-28T09:50:01.616Z,2.80
2023-04-28T09:52:29.918Z,2.70
2023-04-28T09:54:59.683Z,2.90
2023-04-28T09:57:28.990Z,2.70
2023-04-28T09:59:57.918Z,3.07
2023-04-28T10:04:58.370Z,3.03
2023-04-28T10:07:28.378Z,2.70
2023-04-28T10:09:56.928Z,2.70
2023-04-28T10:12:26.787Z,2.90
2023-04-28T10:14:55.277Z,2.80
2023-04-28T10:17:25.440Z,2.67
2023-04-28T10:19:55.244Z,2.30
2023-04-28T10:22:32.770Z,2.40
2023-04-28T10:25:22.130Z,2.73
2023-04-28T10:27:52.243Z,2.57
2023-04-28T10:30:27.355Z,2.50
2023-04-28T10:33:15.357Z,2.60
2023-04-28T10:35:44.323Z,2.63
2023-04-28T10:38:13.467Z,2.40
2023-04-28T10:40:42.549Z,2.33
2023-04-28T10:43:12.581Z,2.27
2023-04-28T10:46:00.822Z,2.17
2023-04-28T10:48:56.363Z,2.17
2023-04-28T10:51:25.630Z,2.10
2023-04-28T10:54:15.722Z,1.97
2023-04-28T10:57:04.056Z,1.70
2023-04-28T10:59:33.655Z,2.13
2023-04-28T11:02:16.684Z,2.17
2023-04-28T11:04:59.790Z,1.93
2023-04-28T11:07:28.017Z,2.10
2023-04-28T11:09:56.170Z,2.10
2023-04-28T11:12:24.329Z,2.00
2023-04-28T11:14:53.847Z,2.20
2023-04-28T11:17:38.609Z,2.60
2023-04-28T11:20:09.070Z,2.20
2023-04-28T11:22:37.623Z,2.43
2023-04-28T11:25:06.008Z,2.50
2023-04-28T11:27:34.900Z,2.40
2023-04-28T11:30:06.038Z,2.57
2023-04-28T11:32:35.083Z,2.80
2023-04-28T11:35:04.428Z,2.67
2023-04-28T11:37:32.641Z,2.70
2023-04-28T11:40:01.347Z,2.57
2023-04-28T11:42:29.532Z,2.53
2023-04-28T11:44:57.679Z,2.57
2023-04-28T11:47:34.243Z,2.67
2023-04-28T11:50:03.249Z,2.47
2023-04-28T11:52:31.677Z,2.53
2023-04-28T11:55:02.395Z,2.50
2023-04-28T11:57:30.897Z,2.57
2023-04-28T12:00:14.278Z,2.57
2023-04-28T12:02:43.977Z,3.23
2023-04-28T12:05:12.709Z,3.00
2023-04-28T12:07:44.434Z,2.90
2023-04-28T12:10:13.590Z,2.93
2023-04-28T12:12:51.032Z,3.40
2023-04-28T12:15:22.534Z,2.90
2023-04-28T12:17:52.379Z,3.13
2023-04-28T12:20:37.173Z,2.90
2023-04-28T12:23:05.482Z,2.73
2023-04-28T12:25:35.138Z,2.30
2023-04-28T12:28:03.974Z,2.20
2023-04-28T12:30:32.878Z,1.97
2023-04-28T12:33:02.612Z,2.30
2023-04-28T12:35:30.993Z,1.73
2023-04-28T12:37:59.391Z,1.70
2023-04-28T12:40:27.811Z,1.70
2023-04-28T12:42:56.876Z,1.53
2023-04-28T12:45:25.067Z,1.73
2023-04-28T12:47:53.385Z,1.43
2023-04-28T12:50:22.999Z,1.40
2023-04-28T12:52:51.174Z,1.90
2023-04-28T12:55:19.464Z,2.00
2023-04-28T12:57:47.817Z,1.50
2023-04-28T13:00:17.115Z,2.00
2023-04-28T13:02:45.459Z,1.83
2023-04-28T13:05:14.281Z,1.87
2023-04-28T13:07:43.790Z,1.80
2023-04-28T13:10:12.868Z,1.90
2023-04-28T13:12:41.193Z,1.70
2023-04-28T13:15:10.171Z,1.90
2023-04-28T13:17:38.036Z,1.60
2023-04-28T13:20:06.958Z,1.70
2023-04-28T13:22:34.784Z,2.00
2023-04-28T13:25:04.022Z,1.90
2023-04-28T13:27:33.223Z,1.47
2023-04-28T13:30:01.078Z,1.50
2023-04-28T13:32:29.683Z,1.10
2023-04-28T13:34:57.562Z,1.20
2023-04-28T13:37:25.530Z,0.90
2023-04-28T13:39:53.382Z,1.07
2023-04-28T13:42:22.557Z,1.00
2023-04-28T13:44:51.647Z,0.97
2023-04-28T13:47:19.808Z,0.80
2023-04-28T13:49:47.764Z,1.13
2023-04-28T13:52:15.762Z,1.47
2023-04-28T13:54:43.877Z,1.90
2023-04-28T13:57:13.592Z,1.60
2023-04-28T13:59:42.832Z,2.10
2023-04-28T14:02:11.688Z,1.90
2023-04-28T14:04:39.872Z,1.93
2023-04-28T14:07:09.821Z,1.80
2023-04-28T14:09:37.658Z,1.90
2023-04-28T14:12:06.156Z,1.70
2023-04-28T14:14:34.300Z,1.73
2023-04-28T14:17:04.483Z,1.30
2023-04-28T14:19:32.349Z,1.63
2023-04-28T14:22:00.165Z,1.20
2023-04-28T14:24:28.077Z,1.10
2023-04-28T14:26:56.367Z,1.30
2023-04-28T14:29:24.524Z,1.30
2023-04-28T14:31:53.229Z,0.90
2023-04-28T14:34:22.719Z,1.07
2023-04-28T14:36:50.886Z,0.97
2023-04-28T14:39:19.071Z,0.93
2023-04-28T14:41:46.939Z,0.90
2023-04-28T14:44:14.779Z,1.10
2023-04-28T14:46:43.418Z,1.00
2023-04-28T14:49:11.866Z,0.90
2023-04-28T14:51:41.534Z,0.80
2023-04-28T14:54:10.307Z,0.90
2023-04-28T14:56:38.182Z,0.80
2023-04-28T14:59:06.019Z,1.00
2023-04-28T15:01:33.908Z,0.73
2023-04-28T15:04:02.040Z,0.80
2023-04-28T15:06:30.035Z,1.00
2023-04-28T15:08:59.243Z,1.30
2023-04-28T15:11:27.241Z,1.60
2023-04-28T15:13:55.105Z,1.50
2023-04-28T15:16:23.009Z,1.47
2023-04-28T15:18:50.854Z,1.60
2023-04-28T15:21:18.674Z,2.07
2023-04-28T15:23:46.574Z,1.47
2023-04-28T15:26:15.845Z,1.50
2023-04-28T15:28:44.022Z,1.80
2023-04-28T15:31:12.355Z,2.17
2023-04-28T15:33:40.624Z,2.17
2023-04-28T15:36:09.437Z,2.20
2023-04-28T15:38:38.427Z,2.00
2023-04-28T15:41:06.818Z,2.13
2023-04-28T15:43:37.363Z,1.90
2023-04-28T15:46:08.687Z,1.80
2023-04-28T15:48:38.253Z,1.83
2023-04-28T15:51:06.512Z,1.53
2023-04-28T15:53:34.796Z,1.40
2023-04-28T15:56:02.989Z,1.40
2023-04-28T15:58:31.338Z,1.87
2023-04-28T16:01:00.926Z,1.20
2023-04-28T16:03:29.353Z,1.00
2023-04-28T16:05:57.956Z,1.10
2023-04-28T16:08:26.290Z,1.20
2023-04-28T16:10:54.530Z,1.20
2023-04-28T16:13:23.110Z,1.40
2023-04-28T16:15:51.742Z,1.40
2023-04-28T16:18:21.687Z,1.30
2023-04-28T16:20:49.865Z,1.20
2023-04-28T16:23:20.249Z,1.20
2023-04-28T16:25:50.700Z,1.10
2023-04-28T16:28:18.890Z,1.20
2023-04-28T16:30:47.450Z,1.37
2023-04-28T16:33:15.626Z,1.23
2023-04-28T16:35:45.546Z,1.33
2023-04-28T16:38:13.698Z,1.30
2023-04-28T16:40:41.885Z,1.10
2023-04-28T16:43:10.060Z,1.10
2023-04-28T16:45:38.310Z,1.00
2023-04-28T16:48:06.675Z,0.90
2023-04-28T16:50:34.873Z,1.20
2023-04-28T16:53:04.403Z,1.07
2023-04-28T16:55:32.595Z,1.00
2023-04-28T16:58:00.782Z,1.00
2023-04-28T17:00:28.930Z,1.10
2023-04-28T17:02:57.312Z,1.10
2023-04-28T17:05:25.618Z,1.13
2023-04-28T17:07:55.004Z,1.00
2023-04-28T17:10:25.008Z,1.00
2023-04-28T17:12:53.156Z,1.00
2023-04-28T17:15:21.314Z,1.30
2023-04-28T17:17:50.268Z,1.00
2023-04-28T17:20:19.985Z,1.13
2023-04-28T17:22:48.626Z,1.10
2023-04-28T17:25:16.978Z,0.90
2023-04-28T17:27:46.478Z,0.80
2023-04-28T17:30:15.126Z,0.97
2023-04-28T17:32:43.453Z,0.90
2023-04-28T17:35:11.908Z,0.83
2023-04-28T17:37:40.086Z,1.43
2023-04-28T17:40:08.871Z,1.20
2023-04-28T17:42:37.058Z,1.00
2023-04-28T17:45:07.428Z,1.30
2023-04-28T17:47:36.210Z,1.40
2023-04-28T17:50:04.416Z,1.00
2023-04-28T17:52:32.817Z,1.20
2023-04-28T17:55:01.073Z,1.23
2023-04-28T17:57:29.325Z,1.53
2023-04-28T17:59:57.477Z,1.20
2023-04-28T18:02:27.120Z,1.20
2023-04-28T18:04:55.407Z,1.33
2023-04-28T18:07:23.585Z,1.50
2023-04-28T18:09:52.937Z,1.43
2023-04-28T18:12:21.494Z,1.50
2023-04-28T18:14:50.422Z,1.50
2023-04-28T18:17:19.058Z,1.90
2023-04-28T18:19:51.268Z,1.50
2023-04-28T18:22:19.473Z,1.70
2023-04-28T18:24:48.537Z,1.30
2023-04-28T18:27:16.818Z,1.90
2023-04-28T18:29:44.996Z,1.97
2023-04-28T18:32:15.032Z,1.70
2023-04-28T18:34:43.428Z,1.80
2023-04-28T18:37:12.982Z,1.73
2023-04-28T18:39:41.155Z,1.70
2023-04-28T18:42:09.373Z,1.87
2023-04-28T18:44:37.537Z,1.93
2023-04-28T18:47:05.715Z,1.80
2023-04-28T18:49:34.471Z,2.03
2023-04-28T18:52:03.568Z,2.20
2023-04-28T18:54:33.237Z,2.37
2023-04-28T18:57:01.416Z,2.23
2023-04-28T18:59:30.154Z,2.00
2023-04-28T19:01:58.388Z,1.90
2023-04-28T19:04:26.806Z,1.70
2023-04-28T19:06:55.018Z,1.80
2023-04-28T19:09:23.172Z,1.87
2023-04-28T19:11:53.621Z,1.60
2023-04-28T19:14:21.765Z,1.70
2023-04-28T19:16:49.978Z,1.60
2023-04-28T19:19:18.167Z,1.57
2023-04-28T19:21:46.748Z,2.10
2023-04-28T19:24:14.936Z,1.60
2023-04-28T19:26:43.235Z,1.33
2023-04-28T19:29:16.923Z,1.40
2023-04-28T19:31:45.155Z,1.10
2023-04-28T19:34:13.779Z,1.40
2023-04-28T19:36:41.940Z,1.27
2023-04-28T19:39:10.098Z,1.20
2023-04-28T19:41:38.289Z,1.20
2023-04-28T19:44:06.417Z,1.30
2023-04-28T19:46:36.073Z,1.33
2023-04-28T19:49:04.291Z,1.60
2023-04-28T19:51:32.958Z,1.80
2023-04-28T19:54:01.126Z,1.63
2023-04-28T19:56:30.237Z,1.70
2023-04-28T19:58:58.613Z,1.73
2023-04-28T20:01:26.796Z,1.50
2023-04-28T20:03:56.580Z,2.03
2023-04-28T20:06:24.857Z,2.10
2023-04-28T20:08:53.026Z,2.50
2023-04-28T20:11:21.480Z,2.27
2023-04-28T20:13:49.654Z,2.27
2023-04-28T20:16:20.230Z,2.40
2023-04-28T20:18:48.468Z,2.20
2023-04-28T20:21:18.122Z,2.40
2023-04-28T20:23:46.279Z,2.50
2023-04-28T20:26:15.037Z,2.30
2023-04-28T20:28:43.260Z,2.50
2023-04-28T20:31:11.606Z,2.40
2023-04-28T20:33:40.250Z,2.40
2023-04-28T20:36:08.445Z,3.17
2023-04-28T20:38:37.978Z,3.10
2023-04-28T20:41:07.759Z,3.03
2023-04-28T20:43:36.301Z,2.93
2023-04-28T20:46:04.513Z,3.50
2023-04-28T20:48:34.149Z,3.57
2023-04-28T20:51:03.575Z,3.90
2023-04-28T20:53:33.034Z,3.43
2023-04-28T20:56:02.664Z,3.83
2023-04-28T20:58:31.440Z,4.03
2023-04-28T21:00:59.733Z,4.23
2023-04-28T21:03:28.111Z,4.10
2023-04-28T21:05:56.365Z,4.23
2023-04-28T21:08:24.612Z,4.63
2023-04-28T21:10:52.779Z,5.07
2023-04-28T21:13:22.357Z,5.00
2023-04-28T21:15:50.724Z,4.57
2023-04-28T21:18:18.901Z,4.47
2023-04-28T21:20:47.180Z,4.60
2023-04-28T21:23:15.338Z,4.90
2023-04-28T21:25:43.624Z,5.87
2023-04-28T21:28:11.882Z,5.97
2023-04-28T21:30:41.427Z,6.50
2023-04-28T21:33:09.618Z,6.33
2023-04-28T21:35:37.829Z,6.83
2023-04-28T21:38:06.119Z,7.63
2023-04-28T21:40:34.264Z,8.07
2023-04-28T21:43:02.483Z,8.17
2023-04-28T21:45:30.656Z,8.73
2023-04-28T21:48:00.403Z,8.43
2023-04-28T21:50:28.699Z,8.60
2023-04-28T21:52:57.111Z,9.73
2023-04-28T21:55:25.340Z,8.73
2023-04-28T21:57:54.101Z,8.87
2023-04-28T22:00:22.823Z,9.97
2023-04-28T22:02:51.292Z,11.53
2023-04-28T22:05:20.916Z,11.60
2023-04-28T22:07:49.068Z,11.97
2023-04-28T22:10:18.237Z,12.07
2023-04-28T22:12:46.682Z,12.80
2023-04-28T22:15:14.899Z,11.80
2023-04-28T22:17:43.268Z,12.60
2023-04-28T22:20:11.802Z,12.30
2023-04-28T22:22:41.572Z,12.40
2023-04-28T22:25:10.201Z,12.73
2023-04-28T22:27:39.912Z,11.40
2023-04-28T22:30:09.177Z,12.33
2023-04-28T22:32:37.357Z,11.37
2023-04-28T22:35:06.159Z,12.57
2023-04-28T22:37:34.314Z,12.00
2023-04-28T22:40:04.669Z,13.37
2023-04-28T22:42:32.869Z,13.83
2023-04-28T22:45:03.333Z,13.40
2023-04-28T22:47:32.100Z,15.60
2023-04-28T22:50:00.415Z,16.13
2023-04-28T22:52:28.559Z,17.83
2023-04-28T22:54:56.680Z,17.37
2023-04-28T22:57:26.235Z,18.47
2023-04-28T22:59:54.652Z,18.60
2023-04-28T23:02:23.874Z,18.37
2023-04-28T23:04:52.257Z,19.60
2023-04-28T23:07:20.557Z,18.53
2023-04-28T23:09:48.874Z,19.37
2023-04-28T23:12:17.133Z,19.93
2023-04-28T23:14:46.690Z,20.07
2023-04-28T23:17:14.846Z,18.90
2023-04-28T23:19:43.023Z,19.27
2023-04-28T23:22:11.179Z,19.97
2023-04-28T23:24:40.006Z,17.60
2023-04-28T23:27:08.272Z,17.47
2023-04-28T23:29:36.777Z,15.53
2023-04-28T23:32:06.719Z,15.93
2023-04-28T23:34:37.965Z,14.33
2023-04-28T23:37:06.520Z,13.10
2023-04-28T23:39:34.672Z,12.67
2023-04-28T23:42:02.867Z,11.87
2023-04-28T23:44:31.011Z,11.83
2023-04-28T23:46:59.144Z,10.73
2023-04-28T23:49:28.642Z,10.93
2023-04-28T23:51:57.228Z,10.73
2023-04-28T23:54:25.410Z,10.97
2023-04-28T23:56:53.544Z,10.90
2023-04-28T23:59:21.807Z,10.87
